createdAt,value
2023-02-11T00:00:44.363Z,6.11
2023-02-11T00:03:11.255Z,6.10
2023-02-11T00:05:38.277Z,6.07
2023-02-11T00:08:05.397Z,6.08
2023-02-11T00:10:32.291Z,6.09
2023-02-11T00:12:59.232Z,6.11
2023-02-11T00:15:26.114Z,6.10
2023-02-11T00:17:52.867Z,6.10
2023-02-11T00:20:19.761Z,6.10
2023-02-11T00:22:46.622Z,6.08
2023-02-11T00:25:13.477Z,6.09
2023-02-11T00:27:40.297Z,6.10
2023-02-11T00:30:07.970Z,6.10
2023-02-11T00:32:34.837Z,6.08
2023-02-11T00:35:01.714Z,6.11
2023-02-11T00:37:28.861Z,6.09
2023-02-11T00:39:55.680Z,6.08
2023-02-11T00:42:22.466Z,6.07
2023-02-11T00:44:49.243Z,6.06
2023-02-11T00:47:17.151Z,6.07
2023-02-11T00:49:44.190Z,6.08
2023-02-11T00:52:11.033Z,6.08
2023-02-11T00:54:38.471Z,6.09
2023-02-11T00:57:06.873Z,6.09
2023-02-11T00:59:33.716Z,6.08
2023-02-11T01:02:01.548Z,6.08
2023-02-11T01:04:28.578Z,6.07
2023-02-11T01:06:55.396Z,6.07
2023-02-11T01:09:22.244Z,6.07
2023-02-11T01:11:49.107Z,6.07
2023-02-11T01:14:16.470Z,6.06
2023-02-11T01:16:43.323Z,6.05
2023-02-11T01:19:10.545Z,6.07
2023-02-11T01:21:37.418Z,6.06
2023-02-11T01:24:04.383Z,6.09
2023-02-11T01:26:31.178Z,6.09
2023-02-11T01:29:00.144Z,6.11
2023-02-11T01:31:28.336Z,6.12
2023-02-11T01:33:55.249Z,6.13
2023-02-11T01:36:22.355Z,6.10
2023-02-11T01:38:50.003Z,6.10
2023-02-11T01:41:19.558Z,6.07
2023-02-11T01:43:49.826Z,6.08
2023-02-11T01:46:38.203Z,6.05
2023-02-11T01:49:16.369Z,6.04
2023-02-11T01:51:55.077Z,6.01
2023-02-11T01:54:44.453Z,5.97
2023-02-11T01:57:22.113Z,5.96
2023-02-11T02:00:00.110Z,5.93
2023-02-11T02:02:42.740Z,5.91
2023-02-11T02:05:40.197Z,5.91
2023-02-11T02:08:14.786Z,5.91
2023-02-11T02:10:47.652Z,5.88
2023-02-11T02:13:17.426Z,5.88
2023-02-11T02:16:01.109Z,5.89
2023-02-11T02:19:01.916Z,5.91
2023-02-11T02:22:06.157Z,5.93
2023-02-11T02:25:10.757Z,5.92
2023-02-11T02:28:03.197Z,5.92
2023-02-11T02:30:44.869Z,5.93
2023-02-11T02:33:24.079Z,5.93
2023-02-11T02:36:31.047Z,5.92
2023-02-11T02:39:07.683Z,5.90
2023-02-11T02:41:39.064Z,5.88
2023-02-11T02:44:08.650Z,5.87
2023-02-11T02:46:37.299Z,5.85
2023-02-11T02:49:12.695Z,5.79
2023-02-11T02:52:15.473Z,5.73
2023-02-11T02:54:53.217Z,5.68
2023-02-11T02:57:50.826Z,5.68
2023-02-11T03:01:04.731Z,5.66
2023-02-11T03:04:23.399Z,5.70
2023-02-11T03:07:17.919Z,5.70
2023-02-11T03:10:00.434Z,5.69
2023-02-11T03:12:33.116Z,5.69
2023-02-11T03:15:03.815Z,5.69
2023-02-11T03:17:35.799Z,5.67
2023-02-11T03:20:10.089Z,5.65
2023-02-11T03:23:19.020Z,5.65
2023-02-11T03:25:56.128Z,5.65
2023-02-11T03:28:37.276Z,5.64
2023-02-11T03:31:17.899Z,5.63
2023-02-11T03:34:04.176Z,5.64
2023-02-11T03:36:50.063Z,5.65
2023-02-11T03:39:25.694Z,5.68
2023-02-11T03:41:58.606Z,5.67
2023-02-11T03:44:33.229Z,5.68
2023-02-11T03:47:03.838Z,5.68
2023-02-11T03:49:33.728Z,5.64
2023-02-11T03:52:03.634Z,5.60
2023-02-11T03:54:31.274Z,5.57
2023-02-11T03:57:01.582Z,5.55
2023-02-11T03:59:29.376Z,5.52
2023-02-11T04:01:57.733Z,5.54
2023-02-11T04:04:24.629Z,5.52
2023-02-11T04:06:51.512Z,5.54
2023-02-11T04:09:18.397Z,5.54
2023-02-11T04:11:45.198Z,5.54
2023-02-11T04:14:11.984Z,5.54
2023-02-11T04:16:38.833Z,5.50
2023-02-11T04:19:05.663Z,5.48
2023-02-11T04:21:32.435Z,5.50
2023-02-11T04:23:59.253Z,5.52
2023-02-11T04:26:26.098Z,5.53
2023-02-11T04:28:52.962Z,5.53
2023-02-11T04:31:19.869Z,5.53
2023-02-11T04:33:46.887Z,5.53
2023-02-11T04:36:13.759Z,5.53
2023-02-11T04:38:40.512Z,5.57
2023-02-11T04:41:07.345Z,5.59
2023-02-11T04:43:34.164Z,5.61
2023-02-11T04:46:01.048Z,5.65
2023-02-11T04:48:27.998Z,5.67
2023-02-11T04:50:54.794Z,5.69
2023-02-11T04:53:21.637Z,5.71
2023-02-11T04:55:53.449Z,5.73
2023-02-11T04:58:20.999Z,5.74
2023-02-11T05:00:48.202Z,5.74
2023-02-11T05:03:16.689Z,5.73
2023-02-11T05:05:44.274Z,5.72
2023-02-11T05:08:12.037Z,5.72
2023-02-11T05:10:39.462Z,5.72
2023-02-11T05:13:06.264Z,5.74
2023-02-11T05:15:33.778Z,5.73
2023-02-11T05:18:01.138Z,5.73
2023-02-11T05:20:28.309Z,5.71
2023-02-11T05:22:55.338Z,5.73
2023-02-11T05:25:22.155Z,5.73
2023-02-11T05:27:48.979Z,5.74
2023-02-11T05:30:15.883Z,5.76
2023-02-11T05:32:42.662Z,5.75
2023-02-11T05:35:09.594Z,5.77
2023-02-11T05:37:36.666Z,5.78
2023-02-11T05:40:04.305Z,5.80
2023-02-11T05:42:31.156Z,5.84
2023-02-11T05:44:58.124Z,5.84
2023-02-11T05:47:25.097Z,5.86
2023-02-11T05:49:53.478Z,5.88
2023-02-11T05:52:22.219Z,5.88
2023-02-11T05:54:49.432Z,5.90
2023-02-11T05:57:17.228Z,5.90
2023-02-11T05:59:44.417Z,5.93
2023-02-11T06:02:12.390Z,5.92
2023-02-11T06:04:39.260Z,5.93
2023-02-11T06:07:06.091Z,5.92
2023-02-11T06:09:32.971Z,5.91
2023-02-11T06:11:59.767Z,5.91
2023-02-11T06:14:26.606Z,5.91
2023-02-11T06:16:53.392Z,5.94
2023-02-11T06:19:20.350Z,5.96
2023-02-11T06:21:47.173Z,5.95
2023-02-11T06:24:13.999Z,5.96
2023-02-11T06:26:41.062Z,5.96
2023-02-11T06:29:07.899Z,5.99
2023-02-11T06:31:34.986Z,6.00
2023-02-11T06:34:01.915Z,5.99
2023-02-11T06:36:28.777Z,6.00
2023-02-11T06:38:55.701Z,6.01
2023-02-11T06:41:22.920Z,6.01
2023-02-11T06:43:52.779Z,6.01
2023-02-11T06:46:19.746Z,6.00
2023-02-11T06:48:46.653Z,6.00
2023-02-11T06:51:14.961Z,6.00
2023-02-11T06:53:47.332Z,5.99
2023-02-11T06:56:24.412Z,6.00
2023-02-11T06:58:58.117Z,6.00
2023-02-11T07:01:27.819Z,6.01
2023-02-11T07:03:54.811Z,6.02
2023-02-11T07:06:27.963Z,6.04
2023-02-11T07:08:55.862Z,6.04
2023-02-11T07:11:28.440Z,6.06
2023-02-11T07:14:01.220Z,6.05
2023-02-11T07:16:28.505Z,6.06
2023-02-11T07:18:55.365Z,6.07
2023-02-11T07:21:24.353Z,6.11
2023-02-11T07:23:52.285Z,6.12
2023-02-11T07:26:23.149Z,6.13
2023-02-11T07:28:51.476Z,6.17
2023-02-11T07:31:28.790Z,6.18
2023-02-11T07:33:59.924Z,6.17
2023-02-11T07:36:29.495Z,6.21
2023-02-11T07:38:56.785Z,6.23
2023-02-11T07:41:25.305Z,6.26
2023-02-11T07:43:52.799Z,6.26
2023-02-11T07:46:25.683Z,6.27
2023-02-11T07:48:53.759Z,6.28
2023-02-11T07:51:29.952Z,6.28
2023-02-11T07:53:59.647Z,6.29
2023-02-11T07:56:28.058Z,6.30
2023-02-11T07:58:56.887Z,6.33
2023-02-11T08:01:28.382Z,6.35
2023-02-11T08:04:00.865Z,6.37
2023-02-11T08:06:34.611Z,6.38
2023-02-11T08:09:07.941Z,6.40
2023-02-11T08:11:35.643Z,6.42
2023-02-11T08:14:03.156Z,6.45
2023-02-11T08:16:34.703Z,6.47
2023-02-11T08:19:06.695Z,6.49
2023-02-11T08:21:33.736Z,6.47
2023-02-11T08:24:02.992Z,6.52
2023-02-11T08:26:32.835Z,6.50
2023-02-11T08:28:59.738Z,6.51
2023-02-11T08:31:35.194Z,6.54
2023-02-11T08:34:02.528Z,6.55
2023-02-11T08:36:42.433Z,6.58
2023-02-11T08:39:20.832Z,6.60
2023-02-11T08:41:54.355Z,6.64
2023-02-11T08:44:22.803Z,6.67
2023-02-11T08:46:51.368Z,6.69
2023-02-11T08:49:18.276Z,6.73
2023-02-11T08:51:45.888Z,6.75
2023-02-11T08:54:13.883Z,6.80
2023-02-11T08:56:41.225Z,6.81
2023-02-11T08:59:12.549Z,6.85
2023-02-11T09:01:39.550Z,6.89
2023-02-11T09:04:06.449Z,6.91
2023-02-11T09:06:33.632Z,6.93
2023-02-11T09:09:00.503Z,6.93
2023-02-11T09:11:33.080Z,6.94
2023-02-11T09:14:01.552Z,6.98
2023-02-11T09:16:32.345Z,7.00
2023-02-11T09:19:01.741Z,7.04
2023-02-11T09:21:29.907Z,7.08
2023-02-11T09:23:57.666Z,7.13
2023-02-11T09:26:31.378Z,7.15
2023-02-11T09:28:59.228Z,7.18
2023-02-11T09:31:29.310Z,7.20
2023-02-11T09:34:01.181Z,7.21
2023-02-11T09:36:33.910Z,7.22
2023-02-11T09:39:02.734Z,7.23
2023-02-11T09:41:59.229Z,7.26
2023-02-11T09:44:32.652Z,7.29
2023-02-11T09:47:15.908Z,7.32
2023-02-11T09:49:52.966Z,7.35
2023-02-11T09:52:51.865Z,7.41
2023-02-11T09:55:26.481Z,7.47
2023-02-11T09:57:53.714Z,7.51
2023-02-11T10:00:33.095Z,7.57
2023-02-11T10:03:37.374Z,7.62
2023-02-11T10:06:24.004Z,7.64
2023-02-11T10:09:29.216Z,7.64
2023-02-11T10:12:44.401Z,7.64
2023-02-11T10:15:46.509Z,7.63
2023-02-11T10:19:14.980Z,7.67
2023-02-11T10:22:19.985Z,7.59
2023-02-11T10:25:00.189Z,7.58
2023-02-11T10:27:33.374Z,7.60
2023-02-11T10:30:32.262Z,7.63
2023-02-11T10:33:27.567Z,7.66
2023-02-11T10:35:54.474Z,7.66
2023-02-11T10:38:21.670Z,7.67
2023-02-11T10:40:48.674Z,7.68
2023-02-11T10:43:19.604Z,7.70
2023-02-11T10:45:52.933Z,7.71
2023-02-11T10:48:40.213Z,7.77
2023-02-11T10:51:14.609Z,7.75
2023-02-11T10:53:42.334Z,7.78
2023-02-11T10:56:22.177Z,7.77
2023-02-11T10:59:01.945Z,7.80
2023-02-11T11:02:01.733Z,7.78
2023-02-11T11:04:42.383Z,7.77
2023-02-11T11:07:14.315Z,7.79
2023-02-11T11:09:55.859Z,7.86
2023-02-11T11:12:35.097Z,7.92
2023-02-11T11:15:22.989Z,8.01
2023-02-11T11:18:20.788Z,8.07
2023-02-11T11:21:07.578Z,8.11
2023-02-11T11:23:38.204Z,8.14
2023-02-11T11:26:14.198Z,8.17
2023-02-11T11:28:50.938Z,8.22
2023-02-11T11:31:24.814Z,8.23
2023-02-11T11:33:55.440Z,8.23
2023-02-11T11:36:34.105Z,8.19
2023-02-11T11:39:17.476Z,8.20
2023-02-11T11:42:00.554Z,8.20
2023-02-11T11:44:39.841Z,8.26
2023-02-11T11:47:13.399Z,8.32
2023-02-11T11:50:35.566Z,8.42
2023-02-11T11:53:18.743Z,8.48
2023-02-11T11:55:53.512Z,8.54
2023-02-11T11:58:23.816Z,8.66
2023-02-11T12:01:27.772Z,8.83
2023-02-11T12:04:29.739Z,8.94
2023-02-11T12:07:40.402Z,8.91
2023-02-11T12:10:42.417Z,8.91
2023-02-11T12:13:48.935Z,8.86
2023-02-11T12:17:00.314Z,8.90
2023-02-11T12:19:35.783Z,8.93
2023-02-11T12:22:27.162Z,9.02
2023-02-11T12:25:13.137Z,9.10
2023-02-11T12:28:45.832Z,9.24
2023-02-11T12:31:26.871Z,9.31
2023-02-11T12:34:12.504Z,9.32
2023-02-11T12:37:14.822Z,9.40
2023-02-11T12:40:06.481Z,9.60
2023-02-11T12:43:07.074Z,9.75
2023-02-11T12:46:07.336Z,9.88
2023-02-11T12:49:05.095Z,10.02
2023-02-11T12:51:56.482Z,10.15
2023-02-11T12:54:37.308Z,10.33
2023-02-11T12:57:23.119Z,10.30
2023-02-11T13:00:08.617Z,10.08
2023-02-11T13:02:56.457Z,9.93
2023-02-11T13:05:58.757Z,9.88
2023-02-11T13:08:50.113Z,9.88
2023-02-11T13:11:24.421Z,9.87
2023-02-11T13:14:32.585Z,9.80
2023-02-11T13:17:00.115Z,9.81
2023-02-11T13:19:34.181Z,9.99
2023-02-11T13:22:21.204Z,10.20
2023-02-11T13:25:10.927Z,10.55
2023-02-11T13:28:22.716Z,10.62
2023-02-11T13:30:57.842Z,10.47
2023-02-11T13:33:42.908Z,10.40
2023-02-11T13:36:09.697Z,10.31
2023-02-11T13:38:38.133Z,10.32
2023-02-11T13:41:21.131Z,10.36
2023-02-11T13:44:10.359Z,10.42
2023-02-11T13:47:07.467Z,10.46
2023-02-11T13:49:40.783Z,10.40
2023-02-11T13:52:38.826Z,10.31
2023-02-11T13:55:21.637Z,10.36
2023-02-11T13:58:08.392Z,10.39
2023-02-11T14:00:35.247Z,10.31
2023-02-11T14:03:29.775Z,10.15
2023-02-11T14:06:27.588Z,10.08
2023-02-11T14:09:09.688Z,10.01
2023-02-11T14:12:31.659Z,10.05
2023-02-11T14:15:07.762Z,10.01
2023-02-11T14:17:35.358Z,10.05
2023-02-11T14:20:24.714Z,10.06
2023-02-11T14:22:54.279Z,10.03
2023-02-11T14:25:27.025Z,10.06
2023-02-11T14:28:11.509Z,10.12
2023-02-11T14:30:51.433Z,10.14
2023-02-11T14:33:47.469Z,10.14
2023-02-11T14:36:43.852Z,10.17
2023-02-11T14:39:53.144Z,10.16
2023-02-11T14:42:26.696Z,10.13
2023-02-11T14:44:59.006Z,10.15
2023-02-11T14:47:56.262Z,10.17
2023-02-11T14:50:33.139Z,10.13
2023-02-11T14:53:03.212Z,10.11
2023-02-11T14:55:38.075Z,10.02
2023-02-11T14:58:24.032Z,9.98
2023-02-11T15:01:08.966Z,9.93
2023-02-11T15:03:42.602Z,9.94
2023-02-11T15:06:32.742Z,9.92
2023-02-11T15:09:07.793Z,9.91
2023-02-11T15:11:41.329Z,9.95
2023-02-11T15:14:17.075Z,9.94
2023-02-11T15:16:46.727Z,9.93
2023-02-11T15:19:34.617Z,9.92
2023-02-11T15:22:07.159Z,9.86
2023-02-11T15:24:35.541Z,9.84
2023-02-11T15:27:08.440Z,9.82
2023-02-11T15:29:39.785Z,9.78
2023-02-11T15:32:13.921Z,9.77
2023-02-11T15:34:41.798Z,9.73
2023-02-11T15:37:17.103Z,9.71
2023-02-11T15:39:44.161Z,9.64
2023-02-11T15:42:38.072Z,9.58
2023-02-11T15:45:17.044Z,9.57
2023-02-11T15:47:54.489Z,9.54
2023-02-11T15:50:29.417Z,9.53
2023-02-11T15:53:01.144Z,9.55
2023-02-11T15:55:29.829Z,9.55
2023-02-11T15:58:01.461Z,9.55
2023-02-11T16:00:44.860Z,9.53
2023-02-11T16:03:32.743Z,9.53
2023-02-11T16:06:22.870Z,9.48
2023-02-11T16:09:23.456Z,9.41
2023-02-11T16:11:50.209Z,9.36
2023-02-11T16:14:39.385Z,9.31
2023-02-11T16:17:30.056Z,9.25
2023-02-11T16:19:56.928Z,9.21
2023-02-11T16:22:30.097Z,9.18
2023-02-11T16:25:00.133Z,9.15
2023-02-11T16:27:41.601Z,9.15
2023-02-11T16:30:32.520Z,9.11
2023-02-11T16:32:59.376Z,9.09
2023-02-11T16:35:26.347Z,9.08
2023-02-11T16:37:54.400Z,9.07
2023-02-11T16:40:23.527Z,9.08
2023-02-11T16:42:52.451Z,9.04
2023-02-11T16:45:19.581Z,9.02
2023-02-11T16:47:46.541Z,9.01
2023-02-11T16:50:24.038Z,8.98
2023-02-11T16:52:52.422Z,8.96
2023-02-11T16:55:21.975Z,8.94
2023-02-11T16:57:49.693Z,8.92
2023-02-11T17:00:18.488Z,8.90
2023-02-11T17:02:45.742Z,8.88
2023-02-11T17:05:20.323Z,8.85
2023-02-11T17:07:47.284Z,8.82
2023-02-11T17:10:23.663Z,8.79
2023-02-11T17:12:51.432Z,8.75
2023-02-11T17:15:18.424Z,8.73
2023-02-11T17:17:45.917Z,8.74
2023-02-11T17:20:14.414Z,8.71
2023-02-11T17:22:41.653Z,8.70
2023-02-11T17:25:12.561Z,8.68
2023-02-11T17:27:39.493Z,8.69
2023-02-11T17:30:07.349Z,8.72
2023-02-11T17:32:34.529Z,8.72
2023-02-11T17:35:02.719Z,8.70
2023-02-11T17:37:30.361Z,8.68
2023-02-11T17:39:57.171Z,8.67
2023-02-11T17:42:24.021Z,8.67
2023-02-11T17:44:50.836Z,8.68
2023-02-11T17:47:17.725Z,8.67
2023-02-11T17:49:45.231Z,8.67
2023-02-11T17:52:12.084Z,8.67
2023-02-11T17:54:39.084Z,8.66
2023-02-11T17:57:05.997Z,8.65
2023-02-11T17:59:35.426Z,8.64
2023-02-11T18:02:04.761Z,8.61
2023-02-11T18:04:33.394Z,8.58
2023-02-11T18:07:00.404Z,8.56
2023-02-11T18:09:27.433Z,8.54
2023-02-11T18:11:54.730Z,8.55
2023-02-11T18:14:22.848Z,8.54
2023-02-11T18:16:52.767Z,8.57
2023-02-11T18:19:20.727Z,8.55
2023-02-11T18:21:50.193Z,8.53
2023-02-11T18:24:18.253Z,8.52
2023-02-11T18:26:45.201Z,8.52
2023-02-11T18:29:12.265Z,8.48
2023-02-11T18:31:40.002Z,8.46
2023-02-11T18:34:10.594Z,8.47
2023-02-11T18:36:37.575Z,8.46
2023-02-11T18:39:05.065Z,8.45
2023-02-11T18:41:32.068Z,8.46
2023-02-11T18:44:01.220Z,8.43
2023-02-11T18:46:29.843Z,8.44
2023-02-11T18:48:56.704Z,8.43
2023-02-11T18:51:23.580Z,8.41
2023-02-11T18:53:50.536Z,8.39
2023-02-11T18:56:21.840Z,8.40
2023-02-11T18:58:51.356Z,8.41
2023-02-11T19:01:27.460Z,8.39
2023-02-11T19:03:58.098Z,8.37
2023-02-11T19:06:29.340Z,8.37
2023-02-11T19:09:01.270Z,8.35
2023-02-11T19:11:49.856Z,8.35
2023-02-11T19:14:24.059Z,8.36
2023-02-11T19:16:56.365Z,8.38
2023-02-11T19:19:25.397Z,8.38
2023-02-11T19:21:52.295Z,8.39
2023-02-11T19:24:19.950Z,8.38
2023-02-11T19:26:48.989Z,8.38
2023-02-11T19:29:16.930Z,8.36
2023-02-11T19:31:44.519Z,8.37
2023-02-11T19:34:15.366Z,8.36
2023-02-11T19:36:42.551Z,8.37
2023-02-11T19:39:10.296Z,8.38
2023-02-11T19:41:37.263Z,8.37
2023-02-11T19:44:06.631Z,8.36
2023-02-11T19:46:38.353Z,8.36
2023-02-11T19:49:05.569Z,8.35
2023-02-11T19:51:33.761Z,8.35
2023-02-11T19:54:01.279Z,8.33
2023-02-11T19:56:29.279Z,8.32
2023-02-11T19:58:56.217Z,8.32
2023-02-11T20:01:25.376Z,8.32
2023-02-11T20:03:56.605Z,8.31
2023-02-11T20:06:28.609Z,8.30
2023-02-11T20:08:58.802Z,8.30
2023-02-11T20:11:29.147Z,8.28
2023-02-11T20:13:57.099Z,8.28
2023-02-11T20:16:44.632Z,8.26
2023-02-11T20:19:18.245Z,8.24
2023-02-11T20:21:48.375Z,8.24
2023-02-11T20:24:17.887Z,8.29
2023-02-11T20:26:46.850Z,8.35
2023-02-11T20:29:15.784Z,8.35
2023-02-11T20:31:43.063Z,8.33
2023-02-11T20:34:11.694Z,8.30
2023-02-11T20:36:40.278Z,8.30
2023-02-11T20:39:08.072Z,8.34
2023-02-11T20:41:39.762Z,8.33
2023-02-11T20:44:10.055Z,8.33
2023-02-11T20:46:40.829Z,8.37
2023-02-11T20:49:10.513Z,8.37
2023-02-11T20:51:37.570Z,8.36
2023-02-11T20:54:06.185Z,8.31
2023-02-11T20:56:36.943Z,8.28
2023-02-11T20:59:05.854Z,8.29
2023-02-11T21:01:41.402Z,8.25
2023-02-11T21:04:18.939Z,8.21
2023-02-11T21:06:50.118Z,8.20
2023-02-11T21:09:21.239Z,8.23
2023-02-11T21:11:51.660Z,8.25
2023-02-11T21:14:20.709Z,8.26
2023-02-11T21:16:48.375Z,8.27
2023-02-11T21:19:16.120Z,8.26
2023-02-11T21:21:43.160Z,8.25
2023-02-11T21:24:11.299Z,8.22
2023-02-11T21:26:38.755Z,8.20
2023-02-11T21:29:07.765Z,8.20
2023-02-11T21:31:35.692Z,8.21
2023-02-11T21:34:02.838Z,8.20
2023-02-11T21:36:30.497Z,8.25
2023-02-11T21:38:58.855Z,8.30
2023-02-11T21:41:27.368Z,8.28
2023-02-11T21:43:54.474Z,8.25
2023-02-11T21:46:22.898Z,8.23
2023-02-11T21:48:50.440Z,8.20
2023-02-11T21:51:24.437Z,8.20
2023-02-11T21:54:03.572Z,8.17
2023-02-11T21:56:33.330Z,8.15
2023-02-11T21:59:00.699Z,8.13
2023-02-11T22:01:35.578Z,8.12
2023-02-11T22:04:02.397Z,8.10
2023-02-11T22:06:34.281Z,8.10
2023-02-11T22:09:09.606Z,8.08
2023-02-11T22:11:37.405Z,8.05
2023-02-11T22:14:05.135Z,8.03
2023-02-11T22:16:32.409Z,8.01
2023-02-11T22:19:00.247Z,7.99
2023-02-11T22:21:28.642Z,8.00
2023-02-11T22:23:56.317Z,7.99
2023-02-11T22:26:25.835Z,7.99
2023-02-11T22:28:53.782Z,8.01
2023-02-11T22:31:26.369Z,8.05
2023-02-11T22:33:53.692Z,8.07
2023-02-11T22:36:27.809Z,8.08
2023-02-11T22:38:55.941Z,8.06
2023-02-11T22:41:23.594Z,8.04
2023-02-11T22:43:50.642Z,8.02
2023-02-11T22:46:19.699Z,8.04
2023-02-11T22:48:48.010Z,8.05
2023-02-11T22:51:22.776Z,8.03
2023-02-11T22:53:59.390Z,7.99
2023-02-11T22:56:28.607Z,7.98
2023-02-11T22:59:05.787Z,7.99
2023-02-11T23:01:33.572Z,8.01
2023-02-11T23:04:04.351Z,8.06
2023-02-11T23:06:31.744Z,8.08
2023-02-11T23:08:58.662Z,8.06
2023-02-11T23:11:30.918Z,8.02
2023-02-11T23:13:58.621Z,7.99
2023-02-11T23:16:31.234Z,7.96
2023-02-11T23:19:08.949Z,7.95
2023-02-11T23:21:38.926Z,7.93
2023-02-11T23:24:12.248Z,7.92
2023-02-11T23:26:41.499Z,7.91
2023-02-11T23:29:09.778Z,7.89
2023-02-11T23:31:40.396Z,7.90
2023-02-11T23:34:08.608Z,7.91
2023-02-11T23:36:35.832Z,7.90
2023-02-11T23:39:03.336Z,7.92
2023-02-11T23:41:30.275Z,7.92
2023-02-11T23:43:58.100Z,7.94
2023-02-11T23:46:27.629Z,7.95
2023-02-11T23:48:54.785Z,7.96
2023-02-11T23:51:23.597Z,7.97
2023-02-11T23:53:54.131Z,7.95
2023-02-11T23:56:26.482Z,7.93
2023-02-11T23:58:56.450Z,7.92
